Naples Municipal Airport Naples US
ICAO: KAPF
IATA: APF
Category: Medium
Scheduled Services: No

Elevation: 8 ft
TransAlt. 18000 ft.

Airport Communications:
FORT MYERS APP/DEP:119.75
ATIS:134.225
CLNC DEL:118
CTAF:128.5
GND:121.6
MIAMI RDO:123.6
TWR:128.5

KAPF Zoom In..

Runways:

(A) RW 05 length 6600 ft width 150 ft
---- / hdg 47

(B) RW 14 length 5000 ft width 100 ft
---- / hdg 137

(C) RW 23 length 6600 ft width 150 ft
---- / hdg 227

(D) RW 32 length 5000 ft width 100 ft
---- / hdg 317

Location; KAPF
Day. 21 / Time. 23.53 Zulu
* Altimeter: 30.10
* Temperature: 22° c. 71.6°f.
* Wind from: 060° Speed 06 kn.
Dewpoint: 18° c.
Visibility: 10 Statute Miles.
Clouds: Clear (automated report).

KAPF 212353Z 06006KT 10SM CLR 22/18 A3010 RMK AO2 SLP193 T02170183 10272 20217 53008


Wind From 060°
Speed 06 kn.

jpsM music video
CHECK IT OUT

jpsM - It Moves..

 
jpsmedia.com for Web Design  worldairports.se 2018   terms of use